< < Back
Terminal Aerodrome Forecast


Current Version              Previous Versions:   1  2  3  4  5  6  7  8  9  

Terminal Aerodrome Forecast

974
FTUS42 KJAX 112323
TAFJAX
TAF
KJAX 112323Z 1200/1224 21007KT P6SM SKC
     FM120900 22006KT 6SM BR SCT025 SCT250
     FM121500 24014G22KT P6SM SCT035 BKN250=



Latest METAR

172
SAUS80 KWBC 121400
MTRJAX
METAR KJAX 121356Z 21008KT 10SM FEW015 SCT033 BKN200 13/12 A3021 RMK AO2
SLP230 T01330122


USA.gov is the U.S. government's official web portal to all federal, state and local government web resources and services.